createdAt,value
2018-02-05T00:02:08.640Z,101927.73
2018-02-05T00:04:37.012Z,101921.86
2018-02-05T00:07:05.375Z,101938.30
2018-02-05T00:09:33.741Z,101931.08
2018-02-05T00:12:02.077Z,101928.53
2018-02-05T00:14:31.219Z,101929.58
2018-02-05T00:17:00.731Z,101927.42
2018-02-05T00:19:29.125Z,101925.00
2018-02-05T00:21:57.449Z,101924.75
2018-02-05T00:24:25.781Z,101922.72
2018-02-05T00:26:54.748Z,101931.97
2018-02-05T00:29:23.084Z,101930.28
2018-02-05T00:31:52.211Z,101939.02
2018-02-05T00:34:20.552Z,101936.54
2018-02-05T00:36:49.701Z,101944.27
2018-02-05T00:39:18.012Z,101942.03
2018-02-05T00:41:46.385Z,101944.09
2018-02-05T00:44:15.243Z,101948.32
2018-02-05T00:46:43.587Z,101952.68
2018-02-05T00:49:11.920Z,101953.69
2018-02-05T00:51:40.292Z,101956.97
2018-02-05T00:54:08.623Z,101962.60
2018-02-05T00:56:37.007Z,101964.94
2018-02-05T00:59:06.124Z,101969.57
2018-02-05T01:01:34.495Z,101969.19
2018-02-05T01:04:02.823Z,101968.37
2018-02-05T01:06:31.963Z,101968.33
2018-02-05T01:09:00.319Z,101973.58
2018-02-05T01:11:28.684Z,101972.69
2018-02-05T01:13:57.816Z,101972.69
2018-02-05T01:16:26.145Z,101972.24
2018-02-05T01:18:55.255Z,101973.86
2018-02-05T01:21:24.387Z,101970.63
2018-02-05T01:23:52.728Z,101974.44
2018-02-05T01:26:22.519Z,101971.56
2018-02-05T01:28:50.891Z,101972.79
2018-02-05T01:31:19.225Z,101965.91
2018-02-05T01:33:47.613Z,101970.80
2018-02-05T01:36:15.947Z,101969.73
2018-02-05T01:38:45.079Z,101979.53
2018-02-05T01:41:13.455Z,101980.20
2018-02-05T01:43:41.792Z,101991.72
2018-02-05T01:46:10.167Z,101988.93
2018-02-05T01:48:38.561Z,101996.30
2018-02-05T01:51:06.891Z,101997.74
2018-02-05T01:53:35.271Z,102000.30
2018-02-05T01:56:03.660Z,102001.48
2018-02-05T01:58:31.990Z,102005.36
2018-02-05T02:01:00.749Z,102011.84
2018-02-05T02:03:29.894Z,102012.09
2018-02-05T02:05:58.227Z,102015.79
2018-02-05T02:08:27.727Z,102016.16
2018-02-05T02:10:56.879Z,102021.44
2018-02-05T02:13:25.203Z,102019.92
2018-02-05T02:15:54.301Z,102024.43
2018-02-05T02:18:23.431Z,102022.64
2018-02-05T02:20:51.771Z,102030.56
2018-02-05T02:23:20.923Z,102025.39
2018-02-05T02:25:49.254Z,102029.11
2018-02-05T02:28:17.622Z,102028.19
2018-02-05T02:30:46.755Z,102031.50
2018-02-05T02:33:15.083Z,102027.33
2018-02-05T02:35:43.451Z,102023.69
2018-02-05T02:38:11.780Z,102029.97
2018-02-05T02:40:40.183Z,102027.77
2018-02-05T02:43:08.522Z,102023.31
2018-02-05T02:45:36.851Z,102024.46
2018-02-05T02:48:05.226Z,102022.45
2018-02-05T02:50:33.557Z,102025.38
2018-02-05T02:53:01.922Z,102023.11
2018-02-05T02:55:30.298Z,102024.41
2018-02-05T02:57:58.646Z,102025.49
2018-02-05T03:00:26.988Z,102022.31
2018-02-05T03:02:55.369Z,102034.43
2018-02-05T03:05:23.740Z,102039.19
2018-02-05T03:07:52.068Z,102036.15
2018-02-05T03:10:21.239Z,102038.39
2018-02-05T03:12:49.575Z,102041.88
2018-02-05T03:15:17.917Z,102048.93
2018-02-05T03:17:46.390Z,102045.96
2018-02-05T03:20:14.710Z,102050.51
2018-02-05T03:22:43.082Z,102052.02
2018-02-05T03:25:11.442Z,102056.72
2018-02-05T03:27:40.584Z,102056.03
2018-02-05T03:30:08.917Z,102059.04
2018-02-05T03:32:38.017Z,102064.27
2018-02-05T03:35:07.170Z,102067.96
2018-02-05T03:37:35.513Z,102066.83
2018-02-05T03:40:03.931Z,102060.48
2018-02-05T03:42:32.258Z,102064.95
2018-02-05T03:45:00.626Z,102071.09
2018-02-05T03:47:29.728Z,102077.63
2018-02-05T03:49:58.120Z,102078.66
2018-02-05T03:52:26.451Z,102087.09
2018-02-05T03:54:54.815Z,102089.96
2018-02-05T03:57:23.594Z,102093.19
2018-02-05T03:59:52.702Z,102092.53
2018-02-05T04:02:21.070Z,102094.25
2018-02-05T04:04:49.414Z,102094.05
2018-02-05T04:07:18.547Z,102100.98
2018-02-05T04:09:47.647Z,102097.09
2018-02-05T04:12:16.018Z,102107.93
2018-02-05T04:14:44.751Z,102108.20
2018-02-05T04:17:13.854Z,102113.56
2018-02-05T04:19:42.241Z,102108.66
2018-02-05T04:22:10.591Z,102112.08
2018-02-05T04:24:39.749Z,102110.74
2018-02-05T04:27:08.113Z,102121.63
2018-02-05T04:29:36.442Z,102121.64
2018-02-05T04:32:05.594Z,102117.28
2018-02-05T04:34:33.945Z,102116.41
2018-02-05T04:37:03.082Z,102122.75
2018-02-05T04:39:31.459Z,102120.58
2018-02-05T04:41:59.802Z,102127.81
2018-02-05T04:44:28.141Z,102119.95
2018-02-05T04:46:57.271Z,102117.97
2018-02-05T04:49:26.791Z,102131.33
2018-02-05T04:51:55.134Z,102129.88
2018-02-05T04:54:24.265Z,102127.39
2018-02-05T04:56:52.717Z,102140.56
2018-02-05T04:59:21.058Z,102138.98
2018-02-05T05:01:49.792Z,102136.86
2018-02-05T05:04:18.562Z,102142.77
2018-02-05T05:06:47.754Z,102142.27
2018-02-05T05:09:16.137Z,102135.05
2018-02-05T05:11:45.282Z,102137.08
2018-02-05T05:14:13.617Z,102139.19
2018-02-05T05:16:41.965Z,102135.96
2018-02-05T05:19:10.386Z,102137.95
2018-02-05T05:21:39.185Z,102136.07
2018-02-05T05:24:08.349Z,102141.31
2018-02-05T05:26:37.456Z,102139.88
2018-02-05T05:29:05.825Z,102144.70
2018-02-05T05:31:34.925Z,102146.23
2018-02-05T05:34:03.293Z,102144.47
2018-02-05T05:36:32.445Z,102147.66
2018-02-05T05:39:00.773Z,102146.95
2018-02-05T05:41:29.909Z,102146.73
2018-02-05T05:43:58.249Z,102148.48
2018-02-05T05:46:26.616Z,102150.02
2018-02-05T05:48:55.377Z,102145.50
2018-02-05T05:51:23.745Z,102152.91
2018-02-05T05:53:52.885Z,102156.92
2018-02-05T05:56:21.269Z,102110.80
2018-02-05T05:58:49.601Z,102155.76
2018-02-05T06:01:17.985Z,102161.35
2018-02-05T06:03:46.317Z,102156.66
2018-02-05T06:06:14.658Z,102168.92
2018-02-05T06:08:43.789Z,102162.23
2018-02-05T06:11:13.653Z,102165.06
2018-02-05T06:13:42.021Z,102168.95
2018-02-05T06:16:10.405Z,102166.27
2018-02-05T06:18:38.740Z,102164.75
2018-02-05T06:21:07.080Z,102170.61
2018-02-05T06:23:36.213Z,102175.71
2018-02-05T06:26:05.313Z,102173.82
2018-02-05T06:28:33.680Z,102179.16
2018-02-05T06:31:02.095Z,102181.04
2018-02-05T06:33:30.440Z,102180.00
2018-02-05T06:35:59.913Z,102187.95
2018-02-05T06:38:29.416Z,102198.05
2018-02-05T06:40:58.530Z,102197.45
2018-02-05T06:43:28.424Z,102194.14
2018-02-05T06:45:57.889Z,102202.28
2018-02-05T06:48:26.256Z,102202.06
2018-02-05T06:51:12.308Z,102207.34
2018-02-05T06:53:58.654Z,102212.17
2018-02-05T06:56:27.768Z,102217.98
2018-02-05T06:58:56.105Z,102225.30
2018-02-05T07:01:25.256Z,102231.96
2018-02-05T07:03:53.604Z,102232.87
2018-02-05T07:06:21.977Z,102230.37
2018-02-05T07:08:50.303Z,102243.23
2018-02-05T07:11:19.457Z,102236.11
2018-02-05T07:13:47.788Z,102237.21
2018-02-05T07:16:16.916Z,102235.02
2018-02-05T07:18:45.288Z,102238.37
2018-02-05T07:21:13.668Z,102240.56
2018-02-05T07:23:42.296Z,102238.17
2018-02-05T07:26:10.668Z,102237.92
2018-02-05T07:28:39.009Z,102229.06
2018-02-05T07:31:07.384Z,102235.55
2018-02-05T07:33:35.748Z,102234.30
2018-02-05T07:36:04.189Z,102236.14
2018-02-05T07:38:32.517Z,102230.20
2018-02-05T07:41:00.916Z,102236.05
2018-02-05T07:43:29.268Z,102224.95
2018-02-05T07:45:58.128Z,102239.04
2018-02-05T07:48:27.488Z,102241.13
2018-02-05T07:50:55.828Z,102239.19
2018-02-05T07:53:24.233Z,102238.19
2018-02-05T07:55:52.564Z,102236.05
2018-02-05T07:58:21.696Z,102237.83
2018-02-05T08:00:50.100Z,102233.52
2018-02-05T08:03:18.440Z,102240.00
2018-02-05T08:05:46.785Z,102230.75
2018-02-05T08:08:15.152Z,102226.96
2018-02-05T08:10:43.532Z,102222.96
2018-02-05T08:13:11.863Z,102229.00
2018-02-05T08:15:40.191Z,102233.23
2018-02-05T08:18:09.336Z,102228.52
2018-02-05T08:20:37.714Z,102227.89
2018-02-05T08:23:06.047Z,102223.31
2018-02-05T08:25:35.172Z,102232.19
2018-02-05T08:28:03.557Z,102233.89
2018-02-05T08:30:31.920Z,102240.73
2018-02-05T08:33:00.296Z,102242.69
2018-02-05T08:35:28.639Z,102246.23
2018-02-05T08:37:57.016Z,102243.67
2018-02-05T08:40:25.351Z,102248.90
2018-02-05T08:42:53.742Z,102252.35
2018-02-05T08:45:22.131Z,102249.27
2018-02-05T08:47:54.013Z,102240.21
2018-02-05T08:50:22.377Z,102238.31
2018-02-05T08:52:50.705Z,102235.59
2018-02-05T08:55:19.080Z,102240.52
2018-02-05T08:57:47.427Z,102238.09
2018-02-05T09:00:15.795Z,102235.54
2018-02-05T09:02:44.117Z,102237.10
2018-02-05T09:05:12.521Z,102244.48
2018-02-05T09:07:40.855Z,102241.47
2018-02-05T09:10:10.044Z,102246.19
2018-02-05T09:12:39.172Z,102247.94
2018-02-05T09:15:07.543Z,102248.92
2018-02-05T09:17:35.931Z,102249.57
2018-02-05T09:20:04.256Z,102249.59
2018-02-05T09:22:32.607Z,102252.88
2018-02-05T09:25:00.987Z,102256.64
2018-02-05T09:27:29.363Z,102251.67
2018-02-05T09:29:57.688Z,102258.91
2018-02-05T09:32:26.823Z,102254.13
2018-02-05T09:34:55.163Z,102253.33
2018-02-05T09:37:24.271Z,102253.68
2018-02-05T09:39:53.392Z,102258.08
2018-02-05T09:42:21.726Z,102261.72
2018-02-05T09:44:50.081Z,102258.58
2018-02-05T09:47:18.407Z,102256.49
2018-02-05T09:49:46.755Z,102258.84
2018-02-05T09:52:15.119Z,102264.77
2018-02-05T09:54:44.311Z,102262.83
2018-02-05T09:57:12.631Z,102262.86
2018-02-05T09:59:40.955Z,102257.52
2018-02-05T10:02:09.319Z,102260.52
2018-02-05T10:04:37.655Z,102262.83
2018-02-05T10:07:07.171Z,102257.84
2018-02-05T10:09:35.506Z,102263.02
2018-02-05T10:12:04.610Z,102266.02
2018-02-05T10:14:32.975Z,102263.97
2018-02-05T10:17:01.303Z,102265.05
2018-02-05T10:19:29.667Z,102262.14
2018-02-05T10:21:58.752Z,102261.78
2018-02-05T10:24:27.899Z,102254.46
2018-02-05T10:26:56.230Z,102251.69
2018-02-05T10:29:25.365Z,102256.27
2018-02-05T10:31:53.741Z,102252.34
2018-02-05T10:34:22.058Z,102263.00
2018-02-05T10:36:50.428Z,102263.41
2018-02-05T10:39:18.751Z,102259.61
2018-02-05T10:41:47.742Z,102264.08
2018-02-05T10:44:16.073Z,102248.62
2018-02-05T10:46:44.435Z,102252.48
2018-02-05T10:49:12.758Z,102249.41
2018-02-05T10:51:41.891Z,102247.32
2018-02-05T10:54:10.262Z,102249.09
2018-02-05T10:56:38.588Z,102246.91
2018-02-05T10:59:06.943Z,102242.36
2018-02-05T11:01:35.280Z,102243.95
2018-02-05T11:04:03.647Z,102243.53
2018-02-05T11:06:32.737Z,102242.44
2018-02-05T11:09:01.110Z,102240.72
2018-02-05T11:11:30.199Z,102238.14
2018-02-05T11:13:59.319Z,102239.06
2018-02-05T11:16:27.670Z,102229.11
2018-02-05T11:18:56.923Z,102229.05
2018-02-05T11:21:25.255Z,102224.20
2018-02-05T11:23:54.337Z,102218.33
2018-02-05T11:26:22.703Z,102221.56
2018-02-05T11:28:51.858Z,102219.72
2018-02-05T11:31:20.265Z,102224.77
2018-02-05T11:33:48.630Z,102221.09
2018-02-05T11:36:17.018Z,102220.59
2018-02-05T11:38:45.330Z,102213.32
2018-02-05T11:41:14.746Z,102216.59
2018-02-05T11:43:43.916Z,102209.91
2018-02-05T11:46:12.342Z,102205.66
2018-02-05T11:48:41.050Z,102205.98
2018-02-05T11:51:09.383Z,102197.98
2018-02-05T11:53:38.511Z,102200.47
2018-02-05T11:56:06.923Z,102197.11
2018-02-05T11:58:35.298Z,102194.33
2018-02-05T12:01:03.635Z,102196.41
2018-02-05T12:03:32.154Z,102189.14
2018-02-05T12:06:00.509Z,102187.02
2018-02-05T12:08:28.843Z,102146.44
2018-02-05T12:10:57.953Z,102178.73
2018-02-05T12:13:26.314Z,102185.25
2018-02-05T12:15:55.410Z,102172.67
2018-02-05T12:18:24.534Z,102164.36
2018-02-05T12:20:52.851Z,102162.55
2018-02-05T12:23:21.201Z,102156.34
2018-02-05T12:25:49.529Z,102152.63
2018-02-05T12:28:17.899Z,102150.36
2018-02-05T12:30:46.239Z,102142.96
2018-02-05T12:33:14.594Z,102138.06
2018-02-05T12:35:42.947Z,102136.65
2018-02-05T12:38:12.042Z,102138.45
2018-02-05T12:40:40.426Z,102142.54
2018-02-05T12:43:09.518Z,102131.97
2018-02-05T12:45:37.882Z,102131.02
2018-02-05T12:48:07.382Z,102134.63
2018-02-05T12:50:35.709Z,102130.78
2018-02-05T12:53:04.070Z,102128.11
2018-02-05T12:55:32.408Z,102130.08
2018-02-05T12:58:00.734Z,102129.39
2018-02-05T13:00:39.837Z,102130.78
2018-02-05T13:03:14.347Z,102128.40
2018-02-05T13:05:44.461Z,102120.45
2018-02-05T13:08:12.815Z,102118.64
2018-02-05T13:10:41.789Z,102114.52
2018-02-05T13:13:10.300Z,102112.13
2018-02-05T13:15:38.585Z,102108.20
2018-02-05T13:18:06.921Z,102108.68
2018-02-05T13:20:35.665Z,102114.18
2018-02-05T13:23:04.886Z,102111.74
2018-02-05T13:25:33.249Z,102112.33
2018-02-05T13:28:02.334Z,102106.81
2018-02-05T13:30:30.726Z,102099.13
2018-02-05T13:33:00.626Z,102091.94
2018-02-05T13:35:28.990Z,102089.09
2018-02-05T13:37:57.733Z,102080.69
2018-02-05T13:40:26.095Z,102079.85
2018-02-05T13:42:54.461Z,102085.49
2018-02-05T13:45:23.589Z,102075.77
2018-02-05T13:47:53.069Z,102069.00
2018-02-05T13:50:21.423Z,102066.61
2018-02-05T13:52:49.778Z,102064.41
2018-02-05T13:55:18.132Z,102060.98
2018-02-05T13:57:46.495Z,102072.61
2018-02-05T14:00:14.837Z,102077.35
2018-02-05T14:02:43.970Z,102072.87
2018-02-05T14:05:12.370Z,102076.38
2018-02-05T14:07:40.702Z,102083.19
2018-02-05T14:10:09.831Z,102078.52
2018-02-05T14:12:38.149Z,102079.98
2018-02-05T14:15:06.501Z,102073.07
2018-02-05T14:17:34.885Z,102069.17
2018-02-05T14:20:03.202Z,102075.36
2018-02-05T14:22:32.321Z,102072.40
2018-02-05T14:25:00.693Z,102071.84
2018-02-05T14:27:29.025Z,102068.46
2018-02-05T14:29:57.401Z,102065.86
2018-02-05T14:32:25.978Z,102065.27
2018-02-05T14:34:54.347Z,102061.58
2018-02-05T14:37:22.678Z,102056.75
2018-02-05T14:39:51.778Z,102056.81
2018-02-05T14:42:20.145Z,102056.26
2018-02-05T14:44:48.513Z,102052.77
2018-02-05T14:47:16.884Z,102047.78
2018-02-05T14:49:45.465Z,102039.27
2018-02-05T14:52:13.821Z,102046.66
2018-02-05T14:54:42.148Z,102043.24
2018-02-05T14:57:11.283Z,102048.97
2018-02-05T14:59:39.624Z,102048.75
2018-02-05T15:02:07.981Z,102045.48
2018-02-05T15:04:37.079Z,102045.77
2018-02-05T15:07:06.212Z,102041.70
2018-02-05T15:09:34.534Z,102035.92
2018-02-05T15:12:02.888Z,102035.55
2018-02-05T15:14:31.217Z,102024.13
2018-02-05T15:17:00.340Z,102032.97
2018-02-05T15:19:28.720Z,102030.16
2018-02-05T15:21:57.045Z,102031.05
2018-02-05T15:24:25.385Z,102032.91
2018-02-05T15:26:53.811Z,102034.38
2018-02-05T15:29:22.956Z,102035.08
2018-02-05T15:31:51.309Z,102029.10
2018-02-05T15:34:19.641Z,102038.65
2018-02-05T15:36:48.041Z,102030.20
2018-02-05T15:39:16.416Z,102040.11
2018-02-05T15:41:45.212Z,102041.14
2018-02-05T15:44:14.414Z,102033.90
2018-02-05T15:46:42.804Z,102039.59
2018-02-05T15:49:11.974Z,102022.87
2018-02-05T15:51:42.740Z,102046.48
2018-02-05T15:54:11.125Z,102040.85
2018-02-05T15:56:39.469Z,102038.53
2018-02-05T15:59:08.582Z,102031.94
2018-02-05T16:01:36.960Z,102035.08
2018-02-05T16:04:05.324Z,102033.39
2018-02-05T16:06:33.692Z,102033.80
2018-02-05T16:09:02.944Z,102030.55
2018-02-05T16:11:31.290Z,102030.03
2018-02-05T16:13:59.656Z,102032.36
2018-02-05T16:16:28.760Z,102033.26
2018-02-05T16:18:57.908Z,102028.98
2018-02-05T16:21:26.240Z,102028.58
2018-02-05T16:23:54.669Z,102029.52
2018-02-05T16:26:23.024Z,102029.73
2018-02-05T16:28:51.364Z,102030.06
2018-02-05T16:31:20.602Z,102037.69
2018-02-05T16:33:48.938Z,102035.66
2018-02-05T16:36:18.034Z,102044.39
2018-02-05T16:38:47.160Z,102030.95
2018-02-05T16:41:15.532Z,102034.61
2018-02-05T16:43:43.932Z,102032.70
2018-02-05T16:46:12.269Z,102040.89
2018-02-05T16:48:41.393Z,102037.20
2018-02-05T16:51:10.129Z,102041.42
2018-02-05T16:53:38.501Z,102031.36
2018-02-05T16:56:06.901Z,102040.41
2018-02-05T16:58:37.437Z,102040.49
2018-02-05T17:01:06.395Z,102039.47
2018-02-05T17:03:34.743Z,102037.81
2018-02-05T17:06:03.307Z,102040.17
2018-02-05T17:08:31.654Z,102043.25
2018-02-05T17:11:00.394Z,102045.45
2018-02-05T17:13:28.877Z,102047.67
2018-02-05T17:15:57.361Z,102043.62
2018-02-05T17:18:25.796Z,102049.18
2018-02-05T17:20:56.139Z,102045.16
2018-02-05T17:23:25.304Z,102051.09
2018-02-05T17:25:55.535Z,102050.80
2018-02-05T17:28:24.048Z,102049.73
2018-02-05T17:30:52.416Z,102046.36
2018-02-05T17:33:21.169Z,102038.67
2018-02-05T17:35:50.347Z,102041.88
2018-02-05T17:38:18.721Z,102039.11
2018-02-05T17:40:47.077Z,102039.34
2018-02-05T17:43:15.448Z,102041.07
2018-02-05T17:45:43.779Z,102038.19
2018-02-05T17:48:12.925Z,102043.85
2018-02-05T17:50:42.190Z,102034.67
2018-02-05T17:53:10.595Z,102036.53
2018-02-05T17:55:38.981Z,102037.30
2018-02-05T17:58:07.339Z,102035.91
2018-02-05T18:00:35.853Z,102031.30
2018-02-05T18:03:04.182Z,102033.91
2018-02-05T18:05:33.965Z,102029.93
2018-02-05T18:08:02.412Z,102033.19
2018-02-05T18:10:30.785Z,102026.70
2018-02-05T18:12:59.976Z,102034.89
2018-02-05T18:15:30.784Z,102035.16
2018-02-05T18:17:59.148Z,102041.47
2018-02-05T18:20:28.297Z,102038.70
2018-02-05T18:22:56.631Z,102051.13
2018-02-05T18:25:26.139Z,102042.14
2018-02-05T18:27:55.365Z,102044.16
2018-02-05T18:30:23.758Z,102042.36
2018-02-05T18:32:52.592Z,102040.70
2018-02-05T18:35:22.071Z,102040.39
2018-02-05T18:37:51.232Z,102041.18
2018-02-05T18:40:19.596Z,102041.80
2018-02-05T18:42:48.742Z,102042.64
2018-02-05T18:45:17.225Z,102033.80
2018-02-05T18:47:46.324Z,102027.58
2018-02-05T18:50:15.491Z,102027.61
2018-02-05T18:52:43.902Z,102036.05
2018-02-05T18:55:12.512Z,102027.73
2018-02-05T18:57:40.883Z,102026.95
2018-02-05T19:00:28.316Z,102028.50
2018-02-05T19:02:57.485Z,102030.41
2018-02-05T19:05:26.599Z,102028.83
2018-02-05T19:07:55.398Z,102032.17
2018-02-05T19:10:23.743Z,102030.13
2018-02-05T19:12:52.884Z,102031.16
2018-02-05T19:15:22.732Z,102025.20
2018-02-05T19:17:53.212Z,102028.81
2018-02-05T19:20:21.672Z,102029.16
2018-02-05T19:22:50.839Z,102021.19
2018-02-05T19:25:19.208Z,102026.27
2018-02-05T19:27:47.558Z,102018.64
2018-02-05T19:30:16.679Z,102022.44
2018-02-05T19:32:45.067Z,102030.00
2018-02-05T19:35:13.435Z,102025.22
2018-02-05T19:37:42.613Z,102025.47
2018-02-05T19:40:11.004Z,102025.23
2018-02-05T19:42:39.350Z,102026.69
2018-02-05T19:45:07.708Z,102021.42
2018-02-05T19:47:36.090Z,102021.05
2018-02-05T19:50:04.483Z,102019.47
2018-02-05T19:52:34.331Z,102016.00
2018-02-05T19:55:03.101Z,102022.38
2018-02-05T19:57:32.537Z,102016.90
2018-02-05T20:00:03.721Z,102015.27
2018-02-05T20:02:32.855Z,102015.45
2018-02-05T20:05:03.877Z,102013.09
2018-02-05T20:07:32.719Z,102016.59
2018-02-05T20:10:01.879Z,102017.33
2018-02-05T20:12:30.387Z,102014.31
2018-02-05T20:15:00.465Z,102017.59
2018-02-05T20:17:29.587Z,102012.53
2018-02-05T20:19:59.445Z,102003.27
2018-02-05T20:22:30.616Z,102002.33
2018-02-05T20:24:59.815Z,101996.66
2018-02-05T20:27:28.783Z,101993.72
2018-02-05T20:29:58.278Z,101992.97
2018-02-05T20:32:27.476Z,101992.03
2018-02-05T20:34:55.852Z,101995.63
2018-02-05T20:37:25.764Z,101997.01
2018-02-05T20:39:54.924Z,101991.62
2018-02-05T20:42:23.332Z,101985.81
2018-02-05T20:44:52.794Z,101992.73
2018-02-05T20:47:21.166Z,101985.37
2018-02-05T20:49:50.191Z,101983.04
2018-02-05T20:52:18.552Z,101982.94
2018-02-05T20:54:47.734Z,101981.19
2018-02-05T20:57:16.110Z,101975.63
2018-02-05T20:59:45.794Z,101972.39
2018-02-05T21:02:14.182Z,101973.58
2018-02-05T21:04:42.566Z,101963.64
2018-02-05T21:07:10.984Z,101971.33
2018-02-05T21:09:39.649Z,101968.80
2018-02-05T21:12:08.783Z,101965.06
2018-02-05T21:14:37.222Z,101969.64
2018-02-05T21:17:06.054Z,101972.86
2018-02-05T21:19:34.527Z,101965.95
2018-02-05T21:22:03.783Z,101960.64
2018-02-05T21:24:33.028Z,101958.85
2018-02-05T21:27:03.714Z,101955.23
2018-02-05T21:29:32.106Z,101957.11
2018-02-05T21:32:00.451Z,101959.95
2018-02-05T21:34:28.802Z,101953.84
2018-02-05T21:36:57.197Z,101949.12
2018-02-05T21:39:27.104Z,101940.66
2018-02-05T21:41:56.992Z,101947.88
2018-02-05T21:44:25.723Z,101946.09
2018-02-05T21:46:55.695Z,101948.33
2018-02-05T21:49:24.779Z,101950.81
2018-02-05T21:51:53.514Z,101945.69
2018-02-05T21:54:21.898Z,101948.16
2018-02-05T21:56:50.463Z,101948.11
2018-02-05T21:59:18.842Z,101946.61
2018-02-05T22:01:48.081Z,101944.35
2018-02-05T22:04:16.698Z,101937.40
2018-02-05T22:06:45.915Z,101934.07
2018-02-05T22:09:14.823Z,101938.97
2018-02-05T22:11:44.190Z,101927.99
2018-02-05T22:14:12.706Z,101927.09
2018-02-05T22:16:41.116Z,101918.31
2018-02-05T22:19:11.351Z,101916.82
2018-02-05T22:21:39.698Z,101911.44
2018-02-05T22:24:08.082Z,101912.23
2018-02-05T22:26:36.426Z,101911.94
2018-02-05T22:29:05.226Z,101909.47
2018-02-05T22:31:33.582Z,101907.62
2018-02-05T22:34:02.049Z,101903.98
2018-02-05T22:36:31.062Z,101900.22
2018-02-05T22:39:00.225Z,101899.77
2018-02-05T22:41:28.612Z,101905.80
2018-02-05T22:43:56.997Z,101901.66
2018-02-05T22:46:26.158Z,101902.95
2018-02-05T22:48:54.843Z,101893.72
2018-02-05T22:51:23.185Z,101887.50
2018-02-05T22:53:52.333Z,101887.05
2018-02-05T22:56:21.027Z,101882.95
2018-02-05T22:58:49.417Z,101880.56
2018-02-05T23:01:17.764Z,101875.01
2018-02-05T23:03:46.190Z,101873.77
2018-02-05T23:06:14.540Z,101870.09
2018-02-05T23:08:42.894Z,101870.54
2018-02-05T23:11:11.273Z,101872.67
2018-02-05T23:13:39.614Z,101867.61
2018-02-05T23:16:07.993Z,101868.95
2018-02-05T23:18:37.099Z,101866.63
2018-02-05T23:21:05.464Z,101860.91
2018-02-05T23:23:33.802Z,101854.52
2018-02-05T23:26:02.181Z,101853.42
2018-02-05T23:28:30.508Z,101850.45
2018-02-05T23:30:58.882Z,101843.89
2018-02-05T23:33:27.972Z,101838.53
2018-02-05T23:35:57.123Z,101839.87
2018-02-05T23:38:25.494Z,101843.73
2018-02-05T23:40:53.836Z,101834.31
2018-02-05T23:43:22.178Z,101840.77
2018-02-05T23:45:50.551Z,101832.81
2018-02-05T23:48:18.929Z,101832.22
2018-02-05T23:50:47.291Z,101832.41
2018-02-05T23:53:15.614Z,101828.09
2018-02-05T23:55:44.788Z,101823.22
2018-02-05T23:58:14.102Z,101821.58
